Cima De Oro — EEIW — position and weather

sailwx.info

Track history (hours):
 
Tides and Currents Weather Stations Pressure Air Temp Water Temp Dewpoint Dewpoint Depression Visibility Wind Speed Wind Dir Waves Ship Positions

Cima De Oro

Last reported at 2018-Apr-10 16:13 UTC. Time now 2018-Apr-24 16:35 UTC.
Position N 27°50' W 015°20'.
Warning: this ship's position is 14 days out of date.

Length 32 m; draft 3.3 m.

Type: Fishing. MMSI: 224074180.

Date/timePositionNaut miles runAvg speedWind from/ knotsBaromVisibWave heightAir tempDewpointWater temp
2018-Apr-10 16:13N 27°50' W 015°20'2 9.7
2018-Apr-10 16:01N 27°52' W 015°18'5 9.5
2018-Apr-10 15:31N 27°55' W 015°14'5 9.4
2018-Apr-10 14:57N 27°58' W 015°09'4 9.5
2018-Apr-10 14:31N 28°01' W 015°06'5 9.4
2018-Apr-10 14:00N 28°04' W 015°01'5 9.4
2018-Apr-10 13:30N 28°07' W 014°57'5 9.2
2018-Apr-10 13:00N 28°09' W 014°53'5 9.2
2018-Apr-10 12:29N 28°12' W 014°49'5 9.1
2018-Apr-10 11:58N 28°15' W 014°45'69 4.3
2018-Apr-09 19:55N 28°54' W 013°40'4 9.1
2018-Apr-09 19:28N 28°56' W 013°35'4 8.5
2018-Apr-09 18:59N 28°58' W 013°32'0 0.6
2018-Apr-09 18:26N 28°58' W 013°32'0 0.0
2018-Apr-09 17:59N 28°58' W 013°32'0 0.0
2018-Apr-09 17:30N 28°58' W 013°32'0 0.0
2018-Apr-09 17:00N 28°58' W 013°32'0 0.0
2018-Apr-09 16:30N 28°58' W 013°32'0 0.0
2018-Apr-09 16:00N 28°58' W 013°32'0 0.0
2018-Apr-09 15:28N 28°58' W 013°32'0 0.0
2018-Apr-09 15:00N 28°58' W 013°32'0 0.0
2018-Apr-09 14:30N 28°58' W 013°32'0 0.0
2018-Apr-09 13:59N 28°58' W 013°32'0 0.0
2018-Apr-09 13:30N 28°58' W 013°32'0 0.0
2018-Apr-09 12:59N 28°58' W 013°32'0 0.0
2018-Apr-09 12:29N 28°58' W 013°32'0 0.0
2018-Apr-09 11:58N 28°58' W 013°32'0 0.0
2018-Apr-09 11:27N 28°58' W 013°32'0 0.0
2018-Apr-09 11:00N 28°58' W 013°32'0 0.0
2018-Apr-09 10:29N 28°58' W 013°32'0 0.0
2018-Apr-09 10:00N 28°58' W 013°32'0 0.0
2018-Apr-09 09:30N 28°58' W 013°32'0 0.0
2018-Apr-09 08:59N 28°58' W 013°32'0 0.0
2018-Apr-09 08:26N 28°58' W 013°32'0 0.0
2018-Apr-09 08:00N 28°58' W 013°32'0 0.0
2018-Apr-09 07:30N 28°58' W 013°32'0 0.0
2018-Apr-09 07:00N 28°58' W 013°32'0 0.0
2018-Apr-09 06:28N 28°58' W 013°32'0 0.0
2018-Apr-09 05:49N 28°58' W 013°32'0 0.0
2018-Apr-09 05:28N 28°58' W 013°32'0 0.0
2018-Apr-09 05:00N 28°58' W 013°32'0 0.0
2018-Apr-09 04:28N 28°58' W 013°32'0 0.0
2018-Apr-09 04:00N 28°58' W 013°32'0 0.0
2018-Apr-09 03:30N 28°58' W 013°32'0 0.0
2018-Apr-09 03:00N 28°58' W 013°32'0 0.0
2018-Apr-09 02:30N 28°58' W 013°32'0 0.0
2018-Apr-09 02:00N 28°58' W 013°32'0 0.0
2018-Apr-09 01:29N 28°58' W 013°32'0 0.0
2018-Apr-09 01:00N 28°58' W 013°32'0 0.0
2018-Apr-09 00:30N 28°58' W 013°32'0 0.0
2018-Apr-08 23:55N 28°58' W 013°32'0 0.0
2018-Apr-08 23:30N 28°58' W 013°32'0 0.0
2018-Apr-08 23:00N 28°58' W 013°32'0 0.0
2018-Apr-08 22:29N 28°58' W 013°32'0 0.0
2018-Apr-08 21:59N 28°58' W 013°32'0 0.0
2018-Apr-08 21:30N 28°58' W 013°32'0 0.0
2018-Apr-08 21:00N 28°58' W 013°32'0 0.0
2018-Apr-08 20:30N 28°58' W 013°32'0 0.0
2018-Apr-08 19:58N 28°58' W 013°32'0 0.0
2018-Apr-08 19:30N 28°58' W 013°32'0 0.0
2018-Apr-08 18:58N 28°58' W 013°32'0 0.0
2018-Apr-08 18:30N 28°58' W 013°32'0 0.0
2018-Apr-08 18:00N 28°58' W 013°32'0 0.0
2018-Apr-08 17:30N 28°58' W 013°32'0 0.0
2018-Apr-08 16:58N 28°58' W 013°32'0 0.0
2018-Apr-08 16:30N 28°58' W 013°32'0 0.0
2018-Apr-08 16:00N 28°58' W 013°32'0 0.0
2018-Apr-08 15:30N 28°58' W 013°32'0 0.0
2018-Apr-08 15:00N 28°58' W 013°32'0 0.0
2018-Apr-08 14:30N 28°58' W 013°32'0 0.0
2018-Apr-08 14:00N 28°58' W 013°32'0 0.0
2018-Apr-08 13:30N 28°58' W 013°32'0 0.0
2018-Apr-08 13:00N 28°58' W 013°32'0 0.0
2018-Apr-08 12:30N 28°58' W 013°32'0 0.0
2018-Apr-08 12:00N 28°58' W 013°32'0 0.0
2018-Apr-08 11:30N 28°58' W 013°32'0 0.0
2018-Apr-08 11:00N 28°58' W 013°32'0 0.0
2018-Apr-08 10:30N 28°58' W 013°32'0 0.0
2018-Apr-08 09:57N 28°58' W 013°32'0 0.0
2018-Apr-08 09:28N 28°58' W 013°32'0 0.0
2018-Apr-08 08:59N 28°58' W 013°32'0 0.0
2018-Apr-08 08:29N 28°58' W 013°32'0 0.0
2018-Apr-08 08:00N 28°58' W 013°32'0 0.0
2018-Apr-08 07:28N 28°58' W 013°32'0 0.0
2018-Apr-08 07:00N 28°58' W 013°32'0 0.0
2018-Apr-08 06:27N 28°58' W 013°32'0 0.0
2018-Apr-08 06:00N 28°58' W 013°32'0 0.0
2018-Apr-08 05:27N 28°58' W 013°32'0 0.0
2018-Apr-08 05:00N 28°58' W 013°32'0 0.0
2018-Apr-08 04:30N 28°58' W 013°32'0 0.0
2018-Apr-08 04:00N 28°58' W 013°32'0 0.0
2018-Apr-08 03:29N 28°58' W 013°32'0 0.0
2018-Apr-08 02:57N 28°58' W 013°32'0 0.0
2018-Apr-08 02:26N 28°58' W 013°32'0 0.0
2018-Apr-08 02:00N 28°58' W 013°32'0 0.0
2018-Apr-08 01:28N 28°58' W 013°32'0 0.0
2018-Apr-08 01:00N 28°58' W 013°32'0 0.0
2018-Apr-08 00:30N 28°58' W 013°32'0 0.0
2018-Apr-07 23:58N 28°58' W 013°32'0 0.0
2018-Apr-07 23:30N 28°58' W 013°32'0 0.0
2018-Apr-07 23:00N 28°58' W 013°32'0 0.0
2018-Apr-07 22:29N 28°58' W 013°32'0 0.0
2018-Apr-07 22:00N 28°58' W 013°32'0 0.0
2018-Apr-07 21:29N 28°58' W 013°32'0 0.0
2018-Apr-07 20:57N 28°58' W 013°32'0 0.0
2018-Apr-07 20:28N 28°58' W 013°32'0 0.0
2018-Apr-07 19:57N 28°58' W 013°32'0 0.0
2018-Apr-07 19:30N 28°58' W 013°32'0 0.0
2018-Apr-07 19:00N 28°58' W 013°32'0 0.0
2018-Apr-07 18:29N 28°58' W 013°32'0 0.0
2018-Apr-07 17:59N 28°58' W 013°32'0 0.0
2018-Apr-07 17:30N 28°58' W 013°32'0 0.0
2018-Apr-07 17:00N 28°58' W 013°32'0 0.0
2018-Apr-07 16:30N 28°58' W 013°32'0 0.0
2018-Apr-07 15:59N 28°58' W 013°32'0 0.0
2018-Apr-07 15:30N 28°58' W 013°32'0 0.0
2018-Apr-07 15:00N 28°58' W 013°32'0 0.0
2018-Apr-07 14:30N 28°58' W 013°32'0 0.0
2018-Apr-07 14:00N 28°58' W 013°32'0 0.0
2018-Apr-07 13:30N 28°58' W 013°32'0 0.0
2018-Apr-07 13:00N 28°58' W 013°32'0 0.0
2018-Apr-07 12:29N 28°58' W 013°32'0 0.0
2018-Apr-07 11:59N 28°58' W 013°32'0 0.0
2018-Apr-07 11:30N 28°58' W 013°32'0 0.0
2018-Apr-07 11:00N 28°58' W 013°32'0 0.0
2018-Apr-07 10:30N 28°58' W 013°32'0 0.0
2018-Apr-07 10:00N 28°58' W 013°32'0 0.0
2018-Apr-07 09:29N 28°58' W 013°32'0 0.0
2018-Apr-07 08:59N 28°58' W 013°32'0 0.0
2018-Apr-07 08:29N 28°58' W 013°32'0 0.0
2018-Apr-07 07:56N 28°58' W 013°32'0 0.0
2018-Apr-07 07:28N 28°58' W 013°32'0 0.0
2018-Apr-07 07:00N 28°58' W 013°32'0 0.0
2018-Apr-07 05:58N 28°58' W 013°32'0 0.0
2018-Apr-07 05:29N 28°58' W 013°32'0 0.0
2018-Apr-07 04:58N 28°58' W 013°32'0 0.0
2018-Apr-07 04:25N 28°58' W 013°32'0 0.0
2018-Apr-07 03:59N 28°58' W 013°32'0 0.0
2018-Apr-07 03:30N 28°58' W 013°32'0 0.0
2018-Apr-07 02:59N 28°58' W 013°32'0 0.0
2018-Apr-07 02:30N 28°58' W 013°32'0 0.0
2018-Apr-07 01:59N 28°58' W 013°32'0 0.0
2018-Apr-07 01:28N 28°58' W 013°32'0 0.0
2018-Apr-07 00:54N 28°58' W 013°32'0 0.0
2018-Apr-07 00:30N 28°58' W 013°32'0 0.0
2018-Apr-06 23:55N 28°58' W 013°32'0 0.0
2018-Apr-06 23:29N 28°58' W 013°32'0 0.0
2018-Apr-06 23:00N 28°58' W 013°32'0 0.0
2018-Apr-06 22:30N 28°58' W 013°32'0 0.0
2018-Apr-06 22:00N 28°58' W 013°32'0 0.0
2018-Apr-06 21:30N 28°58' W 013°32'0 0.0
2018-Apr-06 21:00N 28°58' W 013°32'0 0.0
2018-Apr-06 20:28N 28°58' W 013°32'0 0.0
2018-Apr-06 20:00N 28°58' W 013°32'0 0.0
2018-Apr-06 19:30N 28°58' W 013°32'0 0.0
2018-Apr-06 18:59N 28°58' W 013°32'0 0.0
2018-Apr-06 18:30N 28°58' W 013°32'0 0.0
2018-Apr-06 17:58N 28°58' W 013°32'0 0.0
2018-Apr-06 17:30N 28°58' W 013°32'0 0.0
2018-Apr-06 17:00N 28°58' W 013°32'0 0.0
2018-Apr-06 16:29N 28°58' W 013°32'0 0.0
2018-Apr-06 16:00N 28°58' W 013°32'0 0.0
2018-Apr-06 15:29N 28°58' W 013°32'0 0.0
2018-Apr-06 14:59N 28°58' W 013°32'0 0.0
2018-Apr-06 14:30N 28°58' W 013°32'0 0.0
2018-Apr-06 13:59N 28°58' W 013°32'0 0.0
2018-Apr-06 13:26N 28°58' W 013°32'0 0.0
2018-Apr-06 12:58N 28°58' W 013°32'0 0.0
2018-Apr-06 12:30N 28°58' W 013°32'0 0.0
2018-Apr-06 12:00N 28°58' W 013°32'0 0.0
2018-Apr-06 11:30N 28°58' W 013°32'0 0.0
2018-Apr-06 10:59N 28°58' W 013°32'0 0.0
2018-Apr-06 10:29N 28°58' W 013°32'1 2.7
2018-Apr-06 09:56N 28°57' W 013°33'4 9.3
2018-Apr-06 09:27N 28°55' W 013°38'78 9.3
2018-Apr-06 01:03N 28°42' W 015°06'1 9.5
2018-Apr-06 00:59N 28°42' W 015°06'6 9.5
2018-Apr-06 00:24N 28°42' W 015°13'5 9.3
2018-Apr-05 23:54N 28°41' W 015°18'4 9.4
2018-Apr-05 23:30N 28°41' W 015°22'5 9.4
2018-Apr-05 22:57N 28°40' W 015°28'5 9.3
2018-Apr-05 22:25N 28°39' W 015°34'  
Track history (hours):
 
Tides and Currents Weather Stations Pressure Air Temp Water Temp Dewpoint Dewpoint Depression Visibility Wind Speed Wind Dir Waves Ship Positions

Cima De Oro

Last reported at 2018-Apr-10 16:13 UTC. Time now 2018-Apr-24 16:35 UTC.
Position N 27°50' W 015°20'.
Warning: this ship's position is 14 days out of date.

Length 32 m; draft 3.3 m.

Type: Fishing. MMSI: 224074180.

Date/timePositionNaut miles runAvg speedWind from/ knotsBaromVisibWave heightAir tempDewpointWater temp
2018-Apr-10 16:13N 27°50' W 015°20'2 9.7
2018-Apr-10 16:01N 27°52' W 015°18'5 9.5
2018-Apr-10 15:31N 27°55' W 015°14'5 9.4
2018-Apr-10 14:57N 27°58' W 015°09'4 9.5
2018-Apr-10 14:31N 28°01' W 015°06'5 9.4
2018-Apr-10 14:00N 28°04' W 015°01'5 9.4
2018-Apr-10 13:30N 28°07' W 014°57'5 9.2
2018-Apr-10 13:00N 28°09' W 014°53'5 9.2
2018-Apr-10 12:29N 28°12' W 014°49'5 9.1
2018-Apr-10 11:58N 28°15' W 014°45'69 4.3
2018-Apr-09 19:55N 28°54' W 013°40'4 9.1
2018-Apr-09 19:28N 28°56' W 013°35'4 8.5
2018-Apr-09 18:59N 28°58' W 013°32'0 0.6
2018-Apr-09 18:26N 28°58' W 013°32'0 0.0
2018-Apr-09 17:59N 28°58' W 013°32'0 0.0
2018-Apr-09 17:30N 28°58' W 013°32'0 0.0
2018-Apr-09 17:00N 28°58' W 013°32'0 0.0
2018-Apr-09 16:30N 28°58' W 013°32'0 0.0
2018-Apr-09 16:00N 28°58' W 013°32'0 0.0
2018-Apr-09 15:28N 28°58' W 013°32'0 0.0
2018-Apr-09 15:00N 28°58' W 013°32'0 0.0
2018-Apr-09 14:30N 28°58' W 013°32'0 0.0
2018-Apr-09 13:59N 28°58' W 013°32'0 0.0
2018-Apr-09 13:30N 28°58' W 013°32'0 0.0
2018-Apr-09 12:59N 28°58' W 013°32'0 0.0
2018-Apr-09 12:29N 28°58' W 013°32'0 0.0
2018-Apr-09 11:58N 28°58' W 013°32'0 0.0
2018-Apr-09 11:27N 28°58' W 013°32'0 0.0
2018-Apr-09 11:00N 28°58' W 013°32'0 0.0
2018-Apr-09 10:29N 28°58' W 013°32'0 0.0
2018-Apr-09 10:00N 28°58' W 013°32'0 0.0
2018-Apr-09 09:30N 28°58' W 013°32'0 0.0
2018-Apr-09 08:59N 28°58' W 013°32'0 0.0
2018-Apr-09 08:26N 28°58' W 013°32'0 0.0
2018-Apr-09 08:00N 28°58' W 013°32'0 0.0
2018-Apr-09 07:30N 28°58' W 013°32'0 0.0
2018-Apr-09 07:00N 28°58' W 013°32'0 0.0
2018-Apr-09 06:28N 28°58' W 013°32'0 0.0
2018-Apr-09 05:49N 28°58' W 013°32'0 0.0
2018-Apr-09 05:28N 28°58' W 013°32'0 0.0
2018-Apr-09 05:00N 28°58' W 013°32'0 0.0
2018-Apr-09 04:28N 28°58' W 013°32'0 0.0
2018-Apr-09 04:00N 28°58' W 013°32'0 0.0
2018-Apr-09 03:30N 28°58' W 013°32'0 0.0
2018-Apr-09 03:00N 28°58' W 013°32'0 0.0
2018-Apr-09 02:30N 28°58' W 013°32'0 0.0
2018-Apr-09 02:00N 28°58' W 013°32'0 0.0
2018-Apr-09 01:29N 28°58' W 013°32'0 0.0
2018-Apr-09 01:00N 28°58' W 013°32'0 0.0
2018-Apr-09 00:30N 28°58' W 013°32'0 0.0
2018-Apr-08 23:55N 28°58' W 013°32'0 0.0
2018-Apr-08 23:30N 28°58' W 013°32'0 0.0
2018-Apr-08 23:00N 28°58' W 013°32'0 0.0
2018-Apr-08 22:29N 28°58' W 013°32'0 0.0
2018-Apr-08 21:59N 28°58' W 013°32'0 0.0
2018-Apr-08 21:30N 28°58' W 013°32'0 0.0
2018-Apr-08 21:00N 28°58' W 013°32'0 0.0
2018-Apr-08 20:30N 28°58' W 013°32'0 0.0
2018-Apr-08 19:58N 28°58' W 013°32'0 0.0
2018-Apr-08 19:30N 28°58' W 013°32'0 0.0
2018-Apr-08 18:58N 28°58' W 013°32'0 0.0
2018-Apr-08 18:30N 28°58' W 013°32'0 0.0
2018-Apr-08 18:00N 28°58' W 013°32'0 0.0
2018-Apr-08 17:30N 28°58' W 013°32'0 0.0
2018-Apr-08 16:58N 28°58' W 013°32'0 0.0
2018-Apr-08 16:30N 28°58' W 013°32'0 0.0
2018-Apr-08 16:00N 28°58' W 013°32'0 0.0
2018-Apr-08 15:30N 28°58' W 013°32'0 0.0
2018-Apr-08 15:00N 28°58' W 013°32'0 0.0
2018-Apr-08 14:30N 28°58' W 013°32'0 0.0
2018-Apr-08 14:00N 28°58' W 013°32'0 0.0
2018-Apr-08 13:30N 28°58' W 013°32'0 0.0
2018-Apr-08 13:00N 28°58' W 013°32'0 0.0
2018-Apr-08 12:30N 28°58' W 013°32'0 0.0
2018-Apr-08 12:00N 28°58' W 013°32'0 0.0
2018-Apr-08 11:30N 28°58' W 013°32'0 0.0
2018-Apr-08 11:00N 28°58' W 013°32'0 0.0
2018-Apr-08 10:30N 28°58' W 013°32'0 0.0
2018-Apr-08 09:57N 28°58' W 013°32'0 0.0
2018-Apr-08 09:28N 28°58' W 013°32'0 0.0
2018-Apr-08 08:59N 28°58' W 013°32'0 0.0
2018-Apr-08 08:29N 28°58' W 013°32'0 0.0
2018-Apr-08 08:00N 28°58' W 013°32'0 0.0
2018-Apr-08 07:28N 28°58' W 013°32'0 0.0
2018-Apr-08 07:00N 28°58' W 013°32'0 0.0
2018-Apr-08 06:27N 28°58' W 013°32'0 0.0
2018-Apr-08 06:00N 28°58' W 013°32'0 0.0
2018-Apr-08 05:27N 28°58' W 013°32'0 0.0
2018-Apr-08 05:00N 28°58' W 013°32'0 0.0
2018-Apr-08 04:30N 28°58' W 013°32'0 0.0
2018-Apr-08 04:00N 28°58' W 013°32'0 0.0
2018-Apr-08 03:29N 28°58' W 013°32'0 0.0
2018-Apr-08 02:57N 28°58' W 013°32'0 0.0
2018-Apr-08 02:26N 28°58' W 013°32'0 0.0
2018-Apr-08 02:00N 28°58' W 013°32'0 0.0
2018-Apr-08 01:28N 28°58' W 013°32'0 0.0
2018-Apr-08 01:00N 28°58' W 013°32'0 0.0
2018-Apr-08 00:30N 28°58' W 013°32'0 0.0
2018-Apr-07 23:58N 28°58' W 013°32'0 0.0
2018-Apr-07 23:30N 28°58' W 013°32'0 0.0
2018-Apr-07 23:00N 28°58' W 013°32'0 0.0
2018-Apr-07 22:29N 28°58' W 013°32'0 0.0
2018-Apr-07 22:00N 28°58' W 013°32'0 0.0
2018-Apr-07 21:29N 28°58' W 013°32'0 0.0
2018-Apr-07 20:57N 28°58' W 013°32'0 0.0
2018-Apr-07 20:28N 28°58' W 013°32'0 0.0
2018-Apr-07 19:57N 28°58' W 013°32'0 0.0
2018-Apr-07 19:30N 28°58' W 013°32'0 0.0
2018-Apr-07 19:00N 28°58' W 013°32'0 0.0
2018-Apr-07 18:29N 28°58' W 013°32'0 0.0
2018-Apr-07 17:59N 28°58' W 013°32'0 0.0
2018-Apr-07 17:30N 28°58' W 013°32'0 0.0
2018-Apr-07 17:00N 28°58' W 013°32'0 0.0
2018-Apr-07 16:30N 28°58' W 013°32'0 0.0
2018-Apr-07 15:59N 28°58' W 013°32'0 0.0
2018-Apr-07 15:30N 28°58' W 013°32'0 0.0
2018-Apr-07 15:00N 28°58' W 013°32'0 0.0
2018-Apr-07 14:30N 28°58' W 013°32'0 0.0
2018-Apr-07 14:00N 28°58' W 013°32'0 0.0
2018-Apr-07 13:30N 28°58' W 013°32'0 0.0
2018-Apr-07 13:00N 28°58' W 013°32'0 0.0
2018-Apr-07 12:29N 28°58' W 013°32'0 0.0
2018-Apr-07 11:59N 28°58' W 013°32'0 0.0
2018-Apr-07 11:30N 28°58' W 013°32'0 0.0
2018-Apr-07 11:00N 28°58' W 013°32'0 0.0
2018-Apr-07 10:30N 28°58' W 013°32'0 0.0
2018-Apr-07 10:00N 28°58' W 013°32'0 0.0
2018-Apr-07 09:29N 28°58' W 013°32'0 0.0
2018-Apr-07 08:59N 28°58' W 013°32'0 0.0
2018-Apr-07 08:29N 28°58' W 013°32'0 0.0
2018-Apr-07 07:56N 28°58' W 013°32'0 0.0
2018-Apr-07 07:28N 28°58' W 013°32'0 0.0
2018-Apr-07 07:00N 28°58' W 013°32'0 0.0
2018-Apr-07 05:58N 28°58' W 013°32'0 0.0
2018-Apr-07 05:29N 28°58' W 013°32'0 0.0
2018-Apr-07 04:58N 28°58' W 013°32'0 0.0
2018-Apr-07 04:25N 28°58' W 013°32'0 0.0
2018-Apr-07 03:59N 28°58' W 013°32'0 0.0
2018-Apr-07 03:30N 28°58' W 013°32'0 0.0
2018-Apr-07 02:59N 28°58' W 013°32'0 0.0
2018-Apr-07 02:30N 28°58' W 013°32'0 0.0
2018-Apr-07 01:59N 28°58' W 013°32'0 0.0
2018-Apr-07 01:28N 28°58' W 013°32'0 0.0
2018-Apr-07 00:54N 28°58' W 013°32'0 0.0
2018-Apr-07 00:30N 28°58' W 013°32'0 0.0
2018-Apr-06 23:55N 28°58' W 013°32'0 0.0
2018-Apr-06 23:29N 28°58' W 013°32'0 0.0
2018-Apr-06 23:00N 28°58' W 013°32'0 0.0
2018-Apr-06 22:30N 28°58' W 013°32'0 0.0
2018-Apr-06 22:00N 28°58' W 013°32'0 0.0
2018-Apr-06 21:30N 28°58' W 013°32'0 0.0
2018-Apr-06 21:00N 28°58' W 013°32'0 0.0
2018-Apr-06 20:28N 28°58' W 013°32'0 0.0
2018-Apr-06 20:00N 28°58' W 013°32'0 0.0
2018-Apr-06 19:30N 28°58' W 013°32'0 0.0
2018-Apr-06 18:59N 28°58' W 013°32'0 0.0
2018-Apr-06 18:30N 28°58' W 013°32'0 0.0
2018-Apr-06 17:58N 28°58' W 013°32'0 0.0
2018-Apr-06 17:30N 28°58' W 013°32'0 0.0
2018-Apr-06 17:00N 28°58' W 013°32'0 0.0
2018-Apr-06 16:29N 28°58' W 013°32'0 0.0
2018-Apr-06 16:00N 28°58' W 013°32'0 0.0
2018-Apr-06 15:29N 28°58' W 013°32'0 0.0
2018-Apr-06 14:59N 28°58' W 013°32'0 0.0
2018-Apr-06 14:30N 28°58' W 013°32'0 0.0
2018-Apr-06 13:59N 28°58' W 013°32'0 0.0
2018-Apr-06 13:26N 28°58' W 013°32'0 0.0
2018-Apr-06 12:58N 28°58' W 013°32'0 0.0
2018-Apr-06 12:30N 28°58' W 013°32'0 0.0
2018-Apr-06 12:00N 28°58' W 013°32'0 0.0
2018-Apr-06 11:30N 28°58' W 013°32'0 0.0
2018-Apr-06 10:59N 28°58' W 013°32'0 0.0
2018-Apr-06 10:29N 28°58' W 013°32'1 2.7
2018-Apr-06 09:56N 28°57' W 013°33'4 9.3
2018-Apr-06 09:27N 28°55' W 013°38'78 9.3
2018-Apr-06 01:03N 28°42' W 015°06'1 9.5
2018-Apr-06 00:59N 28°42' W 015°06'6 9.5
2018-Apr-06 00:24N 28°42' W 015°13'5 9.3
2018-Apr-05 23:54N 28°41' W 015°18'4 9.4
2018-Apr-05 23:30N 28°41' W 015°22'5 9.4
2018-Apr-05 22:57N 28°40' W 015°28'5 9.3
2018-Apr-05 22:25N 28°39' W 015°34'  

Dump ship's entire track history